Terminal Aerodrome Forecast
Issued by NWS

Home | Current Version | Previous Version | Graphics & Text | Print | Product List | Glossary On
Versions: 1 2 3 4 5 6 7 8 9 10 11 12 13
000
FTUS43 KMPX 290500
TAFAXN
TAF
KAXN 290527Z 2906/3006 31004KT P6SM SKC
     FM291500 32008KT P6SM SCT050
     FM300100 31003KT P6SM SKC=

USA.gov is the U.S. government's official web portal to all federal, state and local government web resources and services.